Time;durP1;ratioP1;P1;durP2;ratioP2;P2;SDS_P1;SDS_P2;PMS_P1;PMS_P2;Temp;Humidity;BMP_temperature;BMP_pressure;BME280_temperature;BME280_humidity;BME280_pressure;Samples;Min_cycle;Max_cycle;Signal;HPM_P1;HPM_P2
2022/08/03 00:00:00;;;;;;;507.35;461.30;;;;;;;26.47;49.85;99442.13;335861;29;1406;-82
2022/08/03 00:00:14;;;;;;;505.37;459.37;;;;;;;26.41;49.75;99442.81;338971;29;1279;-82
2022/08/03 00:00:25;;;;;;;500.50;455.25;;;;;;;26.39;49.69;99450.22;335692;29;1651;-81
2022/08/03 00:00:37;;;;;;;500.33;455.25;;;;;;;26.40;49.82;99446.53;334679;29;1457;-81
2022/08/03 00:00:48;;;;;;;502.73;457.48;;;;;;;26.37;49.52;99441.47;334630;29;1398;-82
2022/08/03 00:00:58;;;;;;;507.03;461.43;;;;;;;26.38;50.03;99437.78;333285;29;1192;-81
2022/08/03 00:01:09;;;;;;;504.87;458.97;;;;;;;26.42;49.92;99444.50;336842;29;1237;-81
2022/08/03 00:01:19;;;;;;;509.92;463.80;;;;;;;26.41;49.99;99446.34;338092;29;1346;-81
2022/08/03 00:01:30;;;;;;;509.87;463.63;;;;;;;26.42;50.17;99444.50;335704;29;1277;-81
2022/08/03 00:01:40;;;;;;;513.50;467.40;;;;;;;26.41;49.88;99451.72;338075;28;1368;-81
2022/08/03 00:01:50;;;;;;;513.97;467.93;;;;;;;26.42;49.85;99444.50;334947;29;1331;-81
2022/08/03 00:02:02;;;;;;;517.72;471.75;;;;;;;26.43;49.75;99440.78;333080;29;1364;-81
2022/08/03 00:02:13;;;;;;;520.30;474.33;;;;;;;26.44;49.74;99442.47;330829;29;1341;-81
2022/08/03 00:02:23;;;;;;;519.50;473.60;;;;;;;26.40;49.65;99446.53;332780;29;1535;-81
2022/08/03 00:02:34;;;;;;;517.23;471.47;;;;;;;26.43;49.88;99447.00;330561;29;1907;-81
2022/08/03 00:02:44;;;;;;;513.33;467.38;;;;;;;26.43;49.72;99451.53;331773;29;1332;-81
2022/08/03 00:02:54;;;;;;;511.00;465.10;;;;;;;26.44;49.87;99445.16;329049;30;1547;-81
2022/08/03 00:03:05;;;;;;;511.05;465.13;;;;;;;26.43;49.98;99447.00;328333;30;1213;-81
2022/08/03 00:03:15;;;;;;;511.20;465.53;;;;;;;26.44;49.88;99450.50;328319;30;1313;-81
2022/08/03 00:03:26;;;;;;;509.50;464.10;;;;;;;26.42;49.92;99439.13;325547;30;1358;-82
2022/08/03 00:03:36;;;;;;;510.13;464.63;;;;;;;26.43;50.00;99447.00;326897;29;1237;-82
2022/08/03 00:03:46;;;;;;;504.63;459.10;;;;;;;26.46;49.88;99445.81;325975;30;1254;-82
2022/08/03 00:03:57;;;;;;;504.42;458.67;;;;;;;26.47;49.99;99442.13;321902;30;1507;-81
2022/08/03 00:04:08;;;;;;;501.33;455.67;;;;;;;26.46;50.01;99441.28;320482;30;1879;-82
2022/08/03 00:04:18;;;;;;;511.00;465.02;;;;;;;26.46;49.94;99443.13;317762;30;2210;-82
2022/08/03 00:04:29;;;;;;;513.83;467.63;;;;;;;26.46;49.89;99443.13;312032;31;1244;-81
2022/08/03 00:04:39;;;;;;;516.20;469.70;;;;;;;26.42;50.10;99448.03;311980;31;2249;-81
2022/08/03 00:04:49;;;;;;;516.73;470.30;;;;;;;26.39;50.11;99444.84;311709;31;2372;-81
2022/08/03 00:05:00;;;;;;;517.47;471.45;;;;;;;26.36;50.07;99442.50;308771;32;1302;-81
2022/08/03 00:05:10;;;;;;;516.60;470.67;;;;;;;26.37;50.38;99441.47;306570;32;1783;-82
2022/08/03 00:05:21;;;;;;;511.00;465.35;;;;;;;26.35;49.94;99438.97;306085;32;1352;-82
2022/08/03 00:05:34;;;;;;;513.53;467.60;;;;;;;26.39;50.05;99444.84;308566;32;1274;-82
2022/08/03 00:05:45;;;;;;;514.90;469.27;;;;;;;26.39;50.03;99444.84;309073;32;1416;-81
2022/08/03 00:05:55;;;;;;;517.53;472.03;;;;;;;26.37;50.12;99442.31;305039;31;1925;-81
2022/08/03 00:06:06;;;;;;;517.50;471.85;;;;;;;26.37;50.06;99438.81;303253;32;2384;-81
2022/08/03 00:06:16;;;;;;;519.93;473.87;;;;;;;26.38;49.89;99443.16;303585;32;935;-81
2022/08/03 00:06:27;;;;;;;520.50;474.05;;;;;;;26.37;50.31;99441.47;296126;33;1247;-81
2022/08/03 00:06:37;;;;;;;517.83;471.17;;;;;;;26.36;50.12;99435.28;299800;32;2785;-81
2022/08/03 00:06:48;;;;;;;511.57;465.00;;;;;;;26.39;50.15;99444.84;299568;32;2773;-81
2022/08/03 00:06:58;;;;;;;506.43;460.33;;;;;;;26.38;50.43;99440.47;296204;33;1178;-81
2022/08/03 00:07:09;;;;;;;505.15;459.55;;;;;;;26.35;50.50;99448.88;296562;33;2915;-82
2022/08/03 00:07:19;;;;;;;509.63;463.97;;;;;;;26.32;50.58;99439.31;296255;33;2368;-82
2022/08/03 00:07:29;;;;;;;505.08;459.73;;;;;;;26.33;50.53;99440.97;298247;33;1333;-82
2022/08/03 00:07:40;;;;;;;506.60;461.20;;;;;;;26.33;50.61;99440.13;298332;33;1691;-82
2022/08/03 00:07:50;;;;;;;504.05;458.77;;;;;;;26.34;50.60;99436.44;295677;33;2207;-81
2022/08/03 00:08:01;;;;;;;514.13;468.13;;;;;;;26.31;50.40;99448.34;296045;33;1328;-81
2022/08/03 00:08:11;;;;;;;514.90;468.33;;;;;;;26.33;50.68;99440.13;294367;33;3048;-81
2022/08/03 00:08:21;;;;;;;517.58;470.90;;;;;;;26.32;50.37;99442.00;292260;33;3786;-81
2022/08/03 00:08:32;;;;;;;517.30;470.70;;;;;;;26.34;49.93;99436.44;287549;33;4244;-81
2022/08/03 00:08:42;;;;;;;517.15;471.17;;;;;;;26.33;50.60;99438.28;286551;34;1509;-82
2022/08/03 00:08:53;;;;;;;517.83;472.10;;;;;;;26.36;50.63;99439.81;285325;34;4679;-82
2022/08/03 00:09:05;;;;;;;516.75;471.17;;;;;;;26.36;50.38;99429.91;284635;34;4408;-81
2022/08/03 00:09:15;;;;;;;515.25;469.65;;;;;;;26.37;50.54;99441.47;285761;34;1343;-81
2022/08/03 00:09:26;;;;;;;512.67;466.90;;;;;;;26.39;50.45;99444.84;284118;34;3888;-81
2022/08/03 00:09:36;;;;;;;514.38;468.42;;;;;;;26.39;50.20;99439.47;284101;34;3687;-81
2022/08/03 00:09:47;;;;;;;517.53;471.30;;;;;;;26.35;50.35;99438.13;282949;35;1141;-81
2022/08/03 00:09:58;;;;;;;516.65;470.50;;;;;;;26.30;50.63;99435.06;277547;35;884;-81
2022/08/03 00:10:08;;;;;;;516.67;470.75;;;;;;;26.30;50.82;99435.06;277091;35;5715;-81
2022/08/03 00:10:19;;;;;;;519.40;473.47;;;;;;;26.28;50.79;99434.41;276347;35;5146;-81
2022/08/03 00:10:29;;;;;;;522.20;476.13;;;;;;;26.27;50.68;99440.78;274829;36;2001;-81
2022/08/03 00:10:40;;;;;;;524.37;478.23;;;;;;;26.27;50.72;99430.88;276467;35;5831;-81
2022/08/03 00:10:50;;;;;;;523.38;477.27;;;;;;;26.25;50.40;99442.78;274196;35;5790;-81
2022/08/03 00:11:00;;;;;;;515.93;469.93;;;;;;;26.26;50.49;99439.94;271752;36;1246;-81
2022/08/03 00:11:11;;;;;;;508.37;462.67;;;;;;;26.27;50.47;99430.88;271209;35;7579;-81
2022/08/03 00:11:21;;;;;;;508.33;462.83;;;;;;;26.29;50.74;99441.44;271392;36;6396;-81
2022/08/03 00:13:29;;;;;;;457.53;413.17;;;;;;;26.31;50.53;99432.25;2494796;27;20496;-81
2022/08/03 00:13:40;;;;;;;485.43;441.70;;;;;;;26.33;50.84;99442.81;350877;28;1234;-81
2022/08/03 00:13:50;;;;;;;493.13;448.80;;;;;;;26.33;50.85;99434.78;347704;28;1517;-81
2022/08/03 00:14:01;;;;;;;501.20;456.37;;;;;;;26.32;50.79;99438.47;348936;28;1314;-81
2022/08/03 00:14:11;;;;;;;507.90;462.63;;;;;;;26.30;50.65;99443.97;347794;28;1361;-81
2022/08/03 00:14:22;;;;;;;504.90;459.60;;;;;;;26.29;50.37;99434.22;344953;28;1401;-81
2022/08/03 00:14:32;;;;;;;506.73;461.03;;;;;;;26.28;50.79;99426.34;347583;28;1230;-81
2022/08/03 00:14:43;;;;;;;505.05;459.50;;;;;;;26.29;50.47;99436.09;346297;28;1379;-82
2022/08/03 00:14:53;;;;;;;510.53;464.73;;;;;;;26.28;50.43;99431.72;346278;28;1344;-82
2022/08/03 00:15:04;;;;;;;511.90;466.20;;;;;;;26.29;50.46;99433.41;346377;28;991;-82
2022/08/03 00:15:14;;;;;;;512.33;466.48;;;;;;;26.29;50.86;99433.41;343459;28;1400;-82
2022/08/03 00:15:25;;;;;;;504.92;459.33;;;;;;;26.30;50.79;99435.06;346189;28;1287;-82
2022/08/03 00:15:35;;;;;;;505.70;460.07;;;;;;;26.30;50.45;99435.91;345161;28;1201;-82
2022/08/03 00:15:46;;;;;;;502.70;457.45;;;;;;;26.32;50.61;99433.09;346123;28;1322;-82
2022/08/03 00:15:56;;;;;;;505.47;460.17;;;;;;;26.33;50.70;99440.13;348994;28;1207;-82
2022/08/03 00:16:07;;;;;;;502.33;457.45;;;;;;;26.31;50.71;99437.63;346144;28;1353;-81
2022/08/03 00:16:17;;;;;;;505.07;460.17;;;;;;;26.30;50.93;99429.72;345761;28;1282;-81
2022/08/03 00:16:28;;;;;;;505.92;460.88;;;;;;;26.32;50.46;99438.47;345802;28;1240;-81
2022/08/03 00:16:38;;;;;;;508.03;462.63;;;;;;;26.30;50.87;99445.81;346431;28;730;-81
2022/08/03 00:16:49;;;;;;;505.95;460.45;;;;;;;26.28;50.97;99443.28;346255;28;952;-81
2022/08/03 00:16:59;;;;;;;505.80;460.37;;;;;;;26.30;50.54;99429.72;344919;28;1262;-81
2022/08/03 00:17:10;;;;;;;503.25;458.00;;;;;;;26.32;50.55;99438.47;344745;28;1375;-81
2022/08/03 00:17:20;;;;;;;504.87;459.57;;;;;;;26.31;51.13;99432.25;348027;28;1300;-82
2022/08/03 00:17:30;;;;;;;501.35;456.17;;;;;;;26.30;50.70;99443.13;347865;28;1413;-82
2022/08/03 00:17:41;;;;;;;503.10;457.67;;;;;;;26.29;50.66;99430.72;343718;28;1379;-82
2022/08/03 00:17:51;;;;;;;503.65;458.48;;;;;;;26.30;50.77;99438.59;343581;28;1219;-82
2022/08/03 00:18:02;;;;;;;505.20;460.00;;;;;;;26.29;50.50;99433.41;341096;28;1415;-82
2022/08/03 00:18:12;;;;;;;501.73;456.97;;;;;;;26.28;50.63;99431.72;341974;28;1302;-82
2022/08/03 00:18:23;;;;;;;497.67;453.05;;;;;;;26.26;50.74;99439.94;343086;28;1237;-82
2022/08/03 00:18:33;;;;;;;492.93;448.53;;;;;;;26.29;50.49;99444.13;344964;28;1315;-82
2022/08/03 00:18:44;;;;;;;495.20;450.60;;;;;;;26.29;50.78;99433.41;343365;28;1197;-82
2022/08/03 00:18:54;;;;;;;497.37;452.63;;;;;;;26.29;50.95;99433.41;343198;28;858;-82
2022/08/03 00:19:04;;;;;;;495.75;450.90;;;;;;;26.28;50.71;99437.09;343564;28;972;-82
2022/08/03 00:19:15;;;;;;;497.33;452.20;;;;;;;26.29;50.67;99441.44;340815;28;1381;-82
2022/08/03 00:19:26;;;;;;;496.65;451.33;;;;;;;26.28;51.01;99439.78;341804;28;1265;-82
2022/08/03 00:19:37;;;;;;;501.58;455.83;;;;;;;26.29;50.82;99438.75;342502;28;1300;-82
2022/08/03 00:19:47;;;;;;;498.43;452.90;;;;;;;26.27;50.88;99430.03;339728;29;1210;-82
2022/08/03 00:19:57;;;;;;;502.13;456.55;;;;;;;26.30;50.96;99445.81;342140;28;1287;-82
2022/08/03 00:20:08;;;;;;;500.57;455.23;;;;;;;26.29;50.87;99433.41;343512;28;1228;-82
2022/08/03 00:20:20;;;;;;;501.02;455.67;;;;;;;26.31;50.93;99437.63;341135;28;1513;-82
2022/08/03 00:20:30;;;;;;;498.10;453.18;;;;;;;26.28;50.85;99434.41;339742;29;1559;-82
2022/08/03 00:20:41;;;;;;;492.90;448.17;;;;;;;26.27;51.42;99436.25;343823;28;1235;-82
2022/08/03 00:20:51;;;;;;;494.17;449.10;;;;;;;26.25;50.96;99437.41;342085;28;1316;-82
2022/08/03 00:21:02;;;;;;;500.30;454.85;;;;;;;26.27;51.04;99438.09;338267;29;1328;-82
2022/08/03 00:21:13;;;;;;;507.27;461.48;;;;;;;26.28;51.02;99442.44;338139;29;1136;-82
2022/08/03 00:21:23;;;;;;;512.80;466.98;;;;;;;26.25;51.08;99430.22;340040;29;1302;-82
2022/08/03 00:21:33;;;;;;;510.80;465.17;;;;;;;26.26;51.24;99441.78;338832;29;1515;-82
2022/08/03 00:21:44;;;;;;;509.87;464.27;;;;;;;26.24;51.11;99438.41;338165;29;1213;-82
2022/08/03 00:21:54;;;;;;;509.40;463.70;;;;;;;26.28;50.58;99442.44;334108;29;1377;-82
2022/08/03 00:22:05;;;;;;;510.70;464.80;;;;;;;26.26;50.96;99437.25;335622;29;1581;-82
2022/08/03 00:22:15;;;;;;;504.17;458.48;;;;;;;26.24;51.30;99435.75;335547;29;1255;-82
2022/08/03 00:22:25;;;;;;;502.47;456.53;;;;;;;26.26;50.84;99444.47;336891;29;1239;-82
2022/08/03 00:22:36;;;;;;;502.17;456.40;;;;;;;26.23;51.11;99439.44;336303;29;1221;-82
2022/08/03 00:22:46;;;;;;;506.85;461.10;;;;;;;26.22;50.97;99435.06;338605;29;1092;-82
2022/08/03 00:22:57;;;;;;;505.77;460.27;;;;;;;26.19;51.19;99442.44;339335;29;1331;-82
2022/08/03 00:23:07;;;;;;;508.42;462.73;;;;;;;26.16;51.33;99437.41;337379;29;1370;-82
2022/08/03 00:23:18;;;;;;;511.17;465.27;;;;;;;26.18;50.95;99443.44;335765;29;1204;-82
2022/08/03 00:23:28;;;;;;;516.20;470.17;;;;;;;26.17;51.01;99440.94;332989;29;1239;-82
2022/08/03 00:23:39;;;;;;;520.03;473.63;;;;;;;26.15;51.06;99434.88;335128;29;1446;-82
2022/08/03 00:23:49;;;;;;;517.65;471.33;;;;;;;26.17;51.33;99440.94;335065;29;1752;-82
2022/08/03 00:24:00;;;;;;;515.37;469.03;;;;;;;26.15;51.06;99433.06;328165;29;1322;-82
2022/08/03 00:24:10;;;;;;;512.25;466.27;;;;;;;26.14;51.39;99441.25;333083;29;1874;-82
2022/08/03 00:24:21;;;;;;;515.80;469.77;;;;;;;26.15;51.35;99443.78;332784;29;2109;-82
2022/08/03 00:24:31;;;;;;;518.88;472.70;;;;;;;26.16;51.42;99437.41;329425;30;1217;-82
2022/08/03 00:24:42;;;;;;;522.07;475.63;;;;;;;26.15;51.51;99438.41;330431;29;1522;-82
2022/08/03 00:24:52;;;;;;;518.17;472.00;;;;;;;26.17;51.43;99440.94;330414;29;1222;-82
2022/08/03 00:25:03;;;;;;;513.33;467.47;;;;;;;26.15;51.46;99438.41;331936;29;1306;-82
2022/08/03 00:25:13;;;;;;;511.05;465.67;;;;;;;26.15;51.09;99435.72;329497;29;1374;-82
2022/08/03 00:25:23;;;;;;;514.47;469.00;;;;;;;26.17;51.58;99439.09;328295;29;1269;-82
2022/08/03 00:25:34;;;;;;;514.03;468.60;;;;;;;26.17;51.41;99440.94;324246;30;1911;-82
2022/08/03 00:25:45;;;;;;;513.17;467.93;;;;;;;26.16;51.02;99440.09;321077;30;1276;-82
2022/08/03 00:25:55;;;;;;;516.55;471.38;;;;;;;26.13;51.36;99440.41;323114;30;2023;-82
2022/08/03 00:26:06;;;;;;;521.28;475.88;;;;;;;26.12;51.60;99444.13;326067;30;2115;-82
2022/08/03 00:26:16;;;;;;;521.23;475.50;;;;;;;26.11;51.53;99447.78;325644;30;1201;-82
2022/08/03 00:26:26;;;;;;;519.13;473.40;;;;;;;26.08;51.64;99441.91;325469;30;2206;-82
2022/08/03 00:26:37;;;;;;;517.75;472.02;;;;;;;26.09;51.59;99438.25;324946;30;2374;-82
2022/08/03 00:26:47;;;;;;;521.83;476.03;;;;;;;26.11;51.62;99442.44;322553;30;1287;-82
2022/08/03 00:26:58;;;;;;;526.00;480.15;;;;;;;26.10;51.70;99440.75;322076;30;1874;-82
2022/08/03 00:27:08;;;;;;;526.30;480.40;;;;;;;26.10;51.89;99445.28;323954;30;1229;-82
2022/08/03 00:27:19;;;;;;;521.70;476.08;;;;;;;26.10;51.55;99439.91;321487;30;1945;-82
2022/08/03 00:27:29;;;;;;;522.90;476.90;;;;;;;26.09;51.42;99439.06;318619;31;1287;-82
2022/08/03 00:27:39;;;;;;;519.63;473.37;;;;;;;26.11;51.65;99441.59;319327;30;2202;-82
2022/08/03 00:27:50;;;;;;;523.75;477.17;;;;;;;26.12;51.64;99438.75;321637;30;2861;-82
2022/08/03 00:28:01;;;;;;;522.57;476.00;;;;;;;26.12;52.09;99441.44;317711;31;1251;-82
2022/08/03 00:28:12;;;;;;;525.55;479.00;;;;;;;26.11;51.49;99437.06;312816;31;2871;-82
2022/08/03 00:28:22;;;;;;;529.50;483.30;;;;;;;26.12;51.68;99444.13;310363;31;2827;-82
2022/08/03 00:28:33;;;;;;;530.55;484.38;;;;;;;26.12;51.58;99438.75;309751;31;1254;-82
2022/08/03 00:28:43;;;;;;;531.30;485.40;;;;;;;26.12;51.55;99444.13;308707;31;2792;-82
2022/08/03 00:28:53;;;;;;;524.38;478.60;;;;;;;26.10;51.75;99438.06;308856;31;3102;-82
2022/08/03 00:29:04;;;;;;;527.83;481.83;;;;;;;26.12;51.52;99438.75;306985;31;2325;-82
2022/08/03 00:29:14;;;;;;;527.23;481.23;;;;;;;26.08;51.71;99432.03;308607;32;1025;-82
2022/08/03 00:29:25;;;;;;;528.80;482.45;;;;;;;26.13;51.85;99434.22;307538;32;1864;-81
2022/08/03 00:29:35;;;;;;;525.80;479.57;;;;;;;26.12;51.55;99433.38;306034;31;2512;-81
2022/08/03 00:29:45;;;;;;;527.85;481.42;;;;;;;26.15;51.62;99442.94;302210;32;1260;-81
2022/08/03 00:29:56;;;;;;;528.87;482.70;;;;;;;26.12;51.51;99433.38;303394;32;3120;-81
2022/08/03 00:30:07;;;;;;;522.38;476.63;;;;;;;26.12;52.05;99440.59;301850;32;4034;-83
2022/08/03 00:30:17;;;;;;;523.90;478.33;;;;;;;26.11;51.46;99437.06;302297;32;1328;-83
2022/08/03 00:30:28;;;;;;;524.90;479.42;;;;;;;26.10;51.83;99440.75;301093;32;4966;-82
2022/08/03 00:30:38;;;;;;;534.30;488.47;;;;;;;26.09;51.69;99439.06;296642;33;4190;-82
2022/08/03 00:30:49;;;;;;;533.10;487.40;;;;;;;26.09;52.05;99438.25;293748;32;3669;-82
2022/08/03 00:30:59;;;;;;;534.43;488.57;;;;;;;26.10;52.00;99438.06;295736;33;1371;-82
2022/08/03 00:31:09;;;;;;;529.38;483.70;;;;;;;26.11;51.78;99441.59;294675;33;3792;-81
2022/08/03 00:31:20;;;;;;;531.83;486.03;;;;;;;26.12;51.83;99443.28;293460;33;3533;-81
2022/08/03 00:31:30;;;;;;;531.28;485.42;;;;;;;26.09;51.59;99432.88;293234;33;1300;-81
2022/08/03 00:31:41;;;;;;;534.33;487.67;;;;;;;26.10;51.87;99430.03;292533;33;2744;-81
2022/08/03 00:31:51;;;;;;;536.37;489.30;;;;;;;26.08;51.99;99440.06;290588;33;4042;-81
2022/08/03 00:32:01;;;;;;;534.78;487.55;;;;;;;26.08;51.76;99439.25;287400;34;1343;-81
2022/08/03 00:32:12;;;;;;;537.47;489.90;;;;;;;26.08;51.58;99432.03;287836;33;4790;-81
2022/08/03 00:32:22;;;;;;;538.22;490.70;;;;;;;26.08;51.79;99436.56;284021;34;6646;-81
2022/08/03 00:32:33;;;;;;;542.00;494.23;;;;;;;26.08;51.98;99432.03;280246;35;1276;-81
2022/08/03 00:32:43;;;;;;;535.55;488.48;;;;;;;26.06;51.90;99436.72;278516;34;7557;-82
2022/08/03 00:32:54;;;;;;;528.53;482.00;;;;;;;26.03;52.45;99439.75;276413;35;6526;-82
2022/08/03 00:33:04;;;;;;;524.17;477.77;;;;;;;26.04;51.97;99435.22;273701;35;6653;-82
2022/08/03 00:33:15;;;;;;;527.40;481.13;;;;;;;26.04;52.10;99436.03;273151;36;1267;-82
2022/08/03 00:33:25;;;;;;;529.75;483.60;;;;;;;26.05;52.28;99428.84;273301;35;6059;-81
2022/08/03 00:35:34;;;;;;;487.56;442.81;;;;;;;26.01;52.28;99431.00;2493860;27;20281;-81
2022/08/03 00:35:44;;;;;;;535.13;489.43;;;;;;;26.01;52.14;99441.75;350241;28;1187;-81
2022/08/03 00:35:55;;;;;;;535.77;489.97;;;;;;;26.01;52.23;99436.38;347822;28;1212;-81
2022/08/03 00:36:05;;;;;;;530.83;485.13;;;;;;;26.02;52.20;99437.22;348086;28;1188;-81
2022/08/03 00:36:16;;;;;;;529.50;483.98;;;;;;;26.01;52.13;99435.53;347673;28;1468;-81
2022/08/03 00:36:26;;;;;;;533.03;487.33;;;;;;;26.02;52.10;99435.38;346252;28;1240;-81
2022/08/03 00:36:37;;;;;;;542.58;496.50;;;;;;;26.01;52.17;99433.69;344769;28;1318;-81
2022/08/03 00:36:47;;;;;;;543.10;497.00;;;;;;;25.98;52.19;99430.53;346142;28;1228;-81
2022/08/03 00:36:57;;;;;;;541.78;495.98;;;;;;;25.98;52.25;99431.38;346294;28;1233;-81
2022/08/03 00:37:08;;;;;;;542.70;496.77;;;;;;;25.97;52.40;99429.69;346117;28;1196;-81
2022/08/03 00:37:18;;;;;;;544.97;498.93;;;;;;;25.95;51.79;99428.19;347952;28;1203;-81
2022/08/03 00:37:29;;;;;;;548.90;502.30;;;;;;;25.97;52.28;99435.06;346077;28;1389;-82
2022/08/03 00:37:39;;;;;;;551.73;505.07;;;;;;;25.94;52.36;99430.03;347845;28;1264;-82
2022/08/03 00:37:50;;;;;;;551.17;504.58;;;;;;;25.94;52.34;99431.88;347549;28;1314;-82
2022/08/03 00:38:00;;;;;;;549.03;502.53;;;;;;;25.95;52.18;99431.72;344611;28;1350;-82
2022/08/03 00:38:10;;;;;;;543.83;497.38;;;;;;;25.95;52.14;99437.06;347451;28;1239;-82
2022/08/03 00:38:21;;;;;;;544.03;497.60;;;;;;;25.96;52.41;99437.91;346445;28;1216;-82
2022/08/03 00:38:31;;;;;;;544.83;498.48;;;;;;;25.92;52.38;99441.91;343678;28;1248;-82
2022/08/03 00:38:42;;;;;;;547.60;501.17;;;;;;;25.91;52.59;99433.03;345347;28;1332;-82
2022/08/03 00:38:52;;;;;;;550.23;503.53;;;;;;;25.95;52.09;99433.56;345345;28;1386;-82
2022/08/03 00:39:03;;;;;;;549.90;503.25;;;;;;;25.92;52.07;99439.25;344586;28;1282;-82
2022/08/03 00:39:13;;;;;;;544.40;497.90;;;;;;;25.92;52.39;99432.03;344517;28;1363;-82
2022/08/03 00:39:23;;;;;;;541.63;495.30;;;;;;;25.93;52.06;99444.44;344747;28;1125;-82
2022/08/03 00:39:34;;;;;;;538.50;492.30;;;;;;;25.90;52.42;99434.03;343590;28;1378;-82
2022/08/03 00:39:46;;;;;;;541.00;494.77;;;;;;;25.93;52.41;99433.72;345272;28;1309;-82
2022/08/03 00:39:56;;;;;;;544.88;498.45;;;;;;;25.95;52.36;99433.56;344903;28;1281;-82
2022/08/03 00:40:08;;;;;;;540.83;494.50;;;;;;;25.93;52.14;99432.88;345397;28;770;-82
2022/08/03 00:40:18;;;;;;;538.45;492.17;;;;;;;25.93;52.39;99438.25;343590;28;900;-82
2022/08/03 00:40:29;;;;;;;543.23;496.70;;;;;;;25.92;52.12;99436.56;343745;28;1332;-82
2022/08/03 00:40:41;;;;;;;544.03;497.60;;;;;;;25.92;52.42;99442.75;341632;28;1224;-82
2022/08/03 00:40:52;;;;;;;548.58;502.00;;;;;;;25.94;52.30;99440.75;342194;28;1342;-82
2022/08/03 00:41:02;;;;;;;545.35;498.83;;;;;;;25.93;52.32;99435.56;343556;28;912;-82
2022/08/03 00:41:13;;;;;;;548.20;501.30;;;;;;;25.93;52.37;99438.25;343539;28;1207;-82
2022/08/03 00:41:23;;;;;;;545.17;498.55;;;;;;;25.93;52.44;99439.06;341231;28;1319;-82
2022/08/03 00:41:34;;;;;;;544.23;497.30;;;;;;;25.92;52.19;99437.41;339763;29;1347;-82
2022/08/03 00:41:44;;;;;;;539.03;492.65;;;;;;;25.89;52.26;99437.72;339662;29;1320;-82
2022/08/03 00:41:55;;;;;;;540.87;494.07;;;;;;;25.89;52.18;99437.72;338165;29;1206;-82
2022/08/03 00:42:05;;;;;;;548.30;501.60;;;;;;;25.89;52.00;99435.03;338224;29;1226;-82
2022/08/03 00:42:16;;;;;;;549.87;502.73;;;;;;;25.87;52.45;99445.09;339380;29;1279;-81
2022/08/03 00:42:26;;;;;;;543.42;496.63;;;;;;;25.83;52.35;99438.38;338985;29;1484;-81
2022/08/03 00:42:55;;;;;;;540.43;493.50;;;;;;;25.81;52.59;99445.75;340163;29;1214;-81
2022/08/03 00:43:06;;;;;;;538.95;493.25;;;;;;;25.76;52.70;99440.88;339708;29;821;-82
2022/08/03 00:43:17;;;;;;;542.60;496.63;;;;;;;25.73;52.90;99443.03;339336;29;829;-83
2022/08/03 00:43:27;;;;;;;546.58;500.55;;;;;;;25.69;53.03;99430.97;340173;29;1308;-82
2022/08/03 00:43:38;;;;;;;543.73;497.73;;;;;;;25.70;52.97;99438.84;338224;29;1093;-82
2022/08/03 00:43:48;;;;;;;540.03;494.08;;;;;;;25.66;52.87;99439.34;334545;29;1424;-82
2022/08/03 00:43:58;;;;;;;543.77;497.73;;;;;;;25.62;53.26;99441.47;335633;29;1296;-82
2022/08/03 00:44:09;;;;;;;549.53;503.23;;;;;;;25.60;53.12;99443.47;331094;29;1643;-82
2022/08/03 00:44:21;;;;;;;550.67;504.00;;;;;;;25.57;53.26;99442.94;326927;30;1382;-82
2022/08/03 00:44:37;;;;;;;545.65;498.83;;;;;;;25.55;53.60;99442.31;332264;29;1494;-82
2022/08/03 00:44:48;;;;;;;549.95;503.10;;;;;;;25.57;53.32;99437.59;329103;29;1321;-82
2022/08/03 00:44:58;;;;;;;554.80;508.08;;;;;;;25.56;53.44;99446.66;331337;29;1372;-82
2022/08/03 00:45:09;;;;;;;554.90;508.20;;;;;;;25.58;53.27;99444.63;329085;29;1244;-82
2022/08/03 00:45:20;;;;;;;555.20;508.70;;;;;;;25.59;53.53;99438.28;330027;30;1364;-82
2022/08/03 00:45:34;;;;;;;555.42;509.13;;;;;;;25.62;53.36;99446.00;331169;29;1639;-82
2022/08/03 00:45:44;;;;;;;558.15;511.85;;;;;;;25.64;53.37;99444.03;332408;29;1713;-82
2022/08/03 00:45:55;;;;;;;557.22;510.80;;;;;;;25.63;53.40;99440.47;332431;29;1804;-83
2022/08/03 00:46:06;;;;;;;557.05;510.33;;;;;;;25.64;53.05;99444.03;329353;29;1514;-83
2022/08/03 00:46:16;;;;;;;560.57;513.50;;;;;;;25.68;53.25;99443.53;333517;29;1574;-81
2022/08/03 00:46:27;;;;;;;562.80;515.67;;;;;;;25.65;53.25;99446.53;329961;29;2244;-81
2022/08/03 00:46:37;;;;;;;566.20;518.73;;;;;;;25.69;53.17;99447.06;325856;30;1224;-81
2022/08/03 00:46:48;;;;;;;566.92;519.75;;;;;;;25.70;52.93;99440.69;326800;30;1622;-81
2022/08/03 00:46:58;;;;;;;562.57;515.53;;;;;;;25.68;53.24;99440.84;325638;30;1346;-81
2022/08/03 00:47:09;;;;;;;563.23;516.13;;;;;;;25.69;53.19;99447.06;330469;29;1222;-81
2022/08/03 00:47:19;;;;;;;561.03;513.80;;;;;;;25.70;53.21;99438.00;329392;29;1238;-80
2022/08/03 00:47:30;;;;;;;562.58;515.15;;;;;;;25.75;52.98;99446.41;330177;29;1818;-80
2022/08/03 00:47:40;;;;;;;561.03;513.67;;;;;;;25.76;53.09;99443.56;326984;30;2083;-80
2022/08/03 00:47:51;;;;;;;563.63;516.30;;;;;;;25.78;53.13;99446.91;324782;30;1254;-80
2022/08/03 00:48:01;;;;;;;560.80;513.50;;;;;;;25.78;53.03;99444.22;330980;29;2225;-82
2022/08/03 00:48:12;;;;;;;559.72;512.65;;;;;;;25.80;53.24;99449.44;329873;29;2228;-81
2022/08/03 00:48:22;;;;;;;550.10;503.53;;;;;;;25.78;52.95;99446.91;324709;30;1347;-81
2022/08/03 00:48:33;;;;;;;548.92;502.75;;;;;;;25.80;53.07;99449.44;321936;30;1281;-81
2022/08/03 00:48:43;;;;;;;545.00;498.97;;;;;;;25.81;52.95;99449.28;324400;30;2636;-81
2022/08/03 00:48:54;;;;;;;547.90;501.52;;;;;;;25.79;52.79;99442.41;323335;30;1943;-81
2022/08/03 00:49:04;;;;;;;551.23;504.50;;;;;;;25.78;52.79;99443.41;324894;30;1696;-81
2022/08/03 00:49:14;;;;;;;549.08;502.17;;;;;;;25.80;53.18;99444.06;327366;30;1180;-81
2022/08/03 00:49:25;;;;;;;553.77;506.90;;;;;;;25.78;53.11;99448.75;325308;30;2061;-82
2022/08/03 00:49:38;;;;;;;548.20;501.40;;;;;;;25.79;53.57;99445.06;321997;30;1314;-82
2022/08/03 00:49:49;;;;;;;544.70;498.13;;;;;;;25.80;53.24;99444.06;317449;30;1307;-82
2022/08/03 00:49:59;;;;;;;538.67;492.30;;;;;;;25.79;53.43;99445.91;319116;30;3026;-82
2022/08/03 00:50:09;;;;;;;538.00;491.38;;;;;;;25.81;53.51;99451.13;316580;31;3293;-81
2022/08/03 00:50:24;;;;;;;545.83;499.07;;;;;;;25.81;53.26;99445.75;312884;31;1361;-81
2022/08/03 00:50:38;;;;;;;559.25;512.30;;;;;;;25.79;53.70;99443.22;310370;31;1462;-81
2022/08/03 00:50:48;;;;;;;562.05;514.95;;;;;;;25.80;53.65;99449.44;311517;31;1426;-81
2022/08/03 00:50:58;;;;;;;559.25;512.33;;;;;;;25.80;53.39;99444.91;310473;31;2656;-81
2022/08/03 00:51:09;;;;;;;561.93;514.83;;;;;;;25.77;53.06;99449.75;310371;31;2323;-81
2022/08/03 00:51:19;;;;;;;562.58;515.28;;;;;;;25.78;53.42;99446.06;308518;31;1343;-81
2022/08/03 00:51:30;;;;;;;560.87;513.47;;;;;;;25.79;53.19;99450.44;306367;31;2255;-81
2022/08/03 00:51:40;;;;;;;560.95;513.50;;;;;;;25.79;53.27;99447.75;306418;31;2919;-81
2022/08/03 00:51:51;;;;;;;565.33;517.73;;;;;;;25.77;53.45;99449.75;310062;31;812;-81
2022/08/03 00:52:01;;;;;;;572.92;524.95;;;;;;;25.74;53.30;99445.56;305731;31;3758;-81
2022/08/03 00:52:12;;;;;;;573.43;525.43;;;;;;;25.72;53.41;99441.38;301727;32;4042;-82
2022/08/03 00:52:22;;;;;;;575.95;527.97;;;;;;;25.71;53.52;99439.69;301309;32;1365;-82
2022/08/03 00:52:33;;;;;;;575.67;527.63;;;;;;;25.74;53.30;99450.09;300190;32;1317;-82
2022/08/03 00:52:44;;;;;;;573.60;525.90;;;;;;;25.73;53.65;99440.38;299731;32;5395;-82
2022/08/03 00:52:56;;;;;;;577.97;530.15;;;;;;;25.73;53.54;99446.56;298728;32;4242;-82